sensor_id;sensor_type;location;lat;lon;timestamp;temperature;humidity
6696;DHT22;3385;48.928;10.330;2023-08-06T00:00:22;13.60;99.90
6696;DHT22;3385;48.928;10.330;2023-08-06T00:02:48;13.60;99.90
6696;DHT22;3385;48.928;10.330;2023-08-06T00:05:14;13.50;99.90
6696;DHT22;3385;48.928;10.330;2023-08-06T00:10:10;13.70;99.90
6696;DHT22;3385;48.928;10.330;2023-08-06T00:12:36;13.60;99.90
6696;DHT22;3385;48.928;10.330;2023-08-06T00:15:02;13.60;99.90
6696;DHT22;3385;48.928;10.330;2023-08-06T00:17:28;13.40;99.90
6696;DHT22;3385;48.928;10.330;2023-08-06T00:19:53;13.60;99.90
6696;DHT22;3385;48.928;10.330;2023-08-06T00:22:19;13.70;99.90
6696;DHT22;3385;48.928;10.330;2023-08-06T00:24:45;13.80;99.90
6696;DHT22;3385;48.928;10.330;2023-08-06T00:27:10;13.40;99.90
6696;DHT22;3385;48.928;10.330;2023-08-06T00:29:36;13.40;99.90
6696;DHT22;3385;48.928;10.330;2023-08-06T00:32:02;13.20;99.90
6696;DHT22;3385;48.928;10.330;2023-08-06T00:34:28;13.50;99.90
6696;DHT22;3385;48.928;10.330;2023-08-06T00:36:53;13.30;99.90
6696;DHT22;3385;48.928;10.330;2023-08-06T00:39:19;13.20;99.90
6696;DHT22;3385;48.928;10.330;2023-08-06T00:41:45;13.20;99.90
6696;DHT22;3385;48.928;10.330;2023-08-06T00:44:11;13.30;99.90
6696;DHT22;3385;48.928;10.330;2023-08-06T00:46:37;13.40;99.90
6696;DHT22;3385;48.928;10.330;2023-08-06T00:49:03;13.20;99.90
6696;DHT22;3385;48.928;10.330;2023-08-06T00:51:29;13.30;99.90
6696;DHT22;3385;48.928;10.330;2023-08-06T00:53:56;13.40;99.90
6696;DHT22;3385;48.928;10.330;2023-08-06T00:56:21;13.00;99.90
6696;DHT22;3385;48.928;10.330;2023-08-06T00:58:48;13.40;99.90
6696;DHT22;3385;48.928;10.330;2023-08-06T01:01:14;13.50;99.90
6696;DHT22;3385;48.928;10.330;2023-08-06T01:03:39;13.60;99.90
6696;DHT22;3385;48.928;10.330;2023-08-06T01:06:05;13.50;99.90
6696;DHT22;3385;48.928;10.330;2023-08-06T01:08:48;13.40;99.90
6696;DHT22;3385;48.928;10.330;2023-08-06T01:11:44;13.40;99.90
6696;DHT22;3385;48.928;10.330;2023-08-06T01:14:28;13.30;99.90
6696;DHT22;3385;48.928;10.330;2023-08-06T01:16:54;13.30;99.90
6696;DHT22;3385;48.928;10.330;2023-08-06T01:19:21;13.50;99.90
6696;DHT22;3385;48.928;10.330;2023-08-06T01:21:47;13.20;99.90
6696;DHT22;3385;48.928;10.330;2023-08-06T01:24:13;13.40;99.90
6696;DHT22;3385;48.928;10.330;2023-08-06T01:26:45;13.50;99.90
6696;DHT22;3385;48.928;10.330;2023-08-06T01:29:28;13.50;99.90
6696;DHT22;3385;48.928;10.330;2023-08-06T01:31:56;13.30;99.90
6696;DHT22;3385;48.928;10.330;2023-08-06T01:34:28;13.20;99.90
6696;DHT22;3385;48.928;10.330;2023-08-06T01:36:57;13.30;99.90
6696;DHT22;3385;48.928;10.330;2023-08-06T01:39:23;13.00;99.90
6696;DHT22;3385;48.928;10.330;2023-08-06T01:41:49;13.10;99.90
6696;DHT22;3385;48.928;10.330;2023-08-06T01:44:15;13.20;99.90
6696;DHT22;3385;48.928;10.330;2023-08-06T01:46:41;12.90;99.90
6696;DHT22;3385;48.928;10.330;2023-08-06T01:49:07;13.20;99.90
6696;DHT22;3385;48.928;10.330;2023-08-06T01:51:33;12.40;99.90
6696;DHT22;3385;48.928;10.330;2023-08-06T01:53:59;12.70;99.90
6696;DHT22;3385;48.928;10.330;2023-08-06T01:56:24;12.90;99.90
6696;DHT22;3385;48.928;10.330;2023-08-06T01:58:50;12.80;99.90
6696;DHT22;3385;48.928;10.330;2023-08-06T02:01:16;13.00;99.90
6696;DHT22;3385;48.928;10.330;2023-08-06T02:03:41;13.10;99.90
6696;DHT22;3385;48.928;10.330;2023-08-06T02:06:07;12.80;99.90
6696;DHT22;3385;48.928;10.330;2023-08-06T02:08:33;12.70;99.90
6696;DHT22;3385;48.928;10.330;2023-08-06T02:10:59;12.60;99.90
6696;DHT22;3385;48.928;10.330;2023-08-06T02:13:24;12.70;99.90
6696;DHT22;3385;48.928;10.330;2023-08-06T02:15:50;12.60;99.90
6696;DHT22;3385;48.928;10.330;2023-08-06T02:18:16;12.60;99.90
6696;DHT22;3385;48.928;10.330;2023-08-06T02:20:42;12.50;99.90
6696;DHT22;3385;48.928;10.330;2023-08-06T02:23:08;12.60;99.90
6696;DHT22;3385;48.928;10.330;2023-08-06T02:25:34;12.50;99.90
6696;DHT22;3385;48.928;10.330;2023-08-06T02:28:00;12.50;99.90
6696;DHT22;3385;48.928;10.330;2023-08-06T02:30:26;12.00;99.90
6696;DHT22;3385;48.928;10.330;2023-08-06T02:32:52;12.30;99.90
6696;DHT22;3385;48.928;10.330;2023-08-06T02:35:18;12.40;99.90
6696;DHT22;3385;48.928;10.330;2023-08-06T02:37:43;12.60;99.90
6696;DHT22;3385;48.928;10.330;2023-08-06T02:40:09;12.30;99.90
6696;DHT22;3385;48.928;10.330;2023-08-06T02:42:35;12.00;99.90
6696;DHT22;3385;48.928;10.330;2023-08-06T02:45:01;12.00;99.90
6696;DHT22;3385;48.928;10.330;2023-08-06T02:47:27;12.20;99.90
6696;DHT22;3385;48.928;10.330;2023-08-06T02:49:53;12.50;99.90
6696;DHT22;3385;48.928;10.330;2023-08-06T02:52:19;12.40;99.90
6696;DHT22;3385;48.928;10.330;2023-08-06T02:54:44;12.40;99.90
6696;DHT22;3385;48.928;10.330;2023-08-06T02:57:10;12.40;99.90
6696;DHT22;3385;48.928;10.330;2023-08-06T02:59:36;12.60;99.90
6696;DHT22;3385;48.928;10.330;2023-08-06T03:02:01;12.50;99.90
6696;DHT22;3385;48.928;10.330;2023-08-06T03:04:27;12.40;99.90
6696;DHT22;3385;48.928;10.330;2023-08-06T03:06:53;12.50;99.90
6696;DHT22;3385;48.928;10.330;2023-08-06T03:09:19;12.70;99.90
6696;DHT22;3385;48.928;10.330;2023-08-06T03:11:45;12.60;99.90
6696;DHT22;3385;48.928;10.330;2023-08-06T03:14:10;12.50;99.90
6696;DHT22;3385;48.928;10.330;2023-08-06T03:16:36;12.60;99.90
6696;DHT22;3385;48.928;10.330;2023-08-06T03:19:02;12.70;99.90
6696;DHT22;3385;48.928;10.330;2023-08-06T03:21:28;12.80;99.90
6696;DHT22;3385;48.928;10.330;2023-08-06T03:23:53;12.80;99.90
6696;DHT22;3385;48.928;10.330;2023-08-06T03:28:45;12.60;99.90
6696;DHT22;3385;48.928;10.330;2023-08-06T03:31:11;12.60;99.90
6696;DHT22;3385;48.928;10.330;2023-08-06T03:33:36;12.50;99.90
6696;DHT22;3385;48.928;10.330;2023-08-06T03:36:02;12.80;99.90
6696;DHT22;3385;48.928;10.330;2023-08-06T03:38:28;12.70;99.90
6696;DHT22;3385;48.928;10.330;2023-08-06T03:40:54;12.70;99.90
6696;DHT22;3385;48.928;10.330;2023-08-06T03:43:19;13.00;99.90
6696;DHT22;3385;48.928;10.330;2023-08-06T03:45:45;12.70;99.90
6696;DHT22;3385;48.928;10.330;2023-08-06T03:48:11;12.60;99.90
6696;DHT22;3385;48.928;10.330;2023-08-06T03:50:37;12.80;99.90
6696;DHT22;3385;48.928;10.330;2023-08-06T03:53:03;12.50;99.90
6696;DHT22;3385;48.928;10.330;2023-08-06T03:55:29;12.60;99.90
6696;DHT22;3385;48.928;10.330;2023-08-06T03:57:55;12.70;99.90
6696;DHT22;3385;48.928;10.330;2023-08-06T04:00:20;12.80;99.90
6696;DHT22;3385;48.928;10.330;2023-08-06T04:02:46;12.60;99.90
6696;DHT22;3385;48.928;10.330;2023-08-06T04:05:12;12.80;99.90
6696;DHT22;3385;48.928;10.330;2023-08-06T04:07:38;12.70;99.90
6696;DHT22;3385;48.928;10.330;2023-08-06T04:10:04;12.50;99.90
6696;DHT22;3385;48.928;10.330;2023-08-06T04:12:30;12.60;99.90
6696;DHT22;3385;48.928;10.330;2023-08-06T04:15:01;12.40;99.90
6696;DHT22;3385;48.928;10.330;2023-08-06T04:17:26;12.30;99.90
6696;DHT22;3385;48.928;10.330;2023-08-06T04:19:54;12.30;99.90
6696;DHT22;3385;48.928;10.330;2023-08-06T04:22:20;12.50;99.90
6696;DHT22;3385;48.928;10.330;2023-08-06T04:24:47;12.30;99.90
6696;DHT22;3385;48.928;10.330;2023-08-06T04:27:14;12.50;99.90
6696;DHT22;3385;48.928;10.330;2023-08-06T04:29:40;12.50;99.90
6696;DHT22;3385;48.928;10.330;2023-08-06T04:32:08;12.90;99.90
6696;DHT22;3385;48.928;10.330;2023-08-06T04:34:35;12.50;99.90
6696;DHT22;3385;48.928;10.330;2023-08-06T04:37:02;12.50;99.90
6696;DHT22;3385;48.928;10.330;2023-08-06T04:39:28;12.80;99.90
6696;DHT22;3385;48.928;10.330;2023-08-06T04:41:54;12.70;99.90
6696;DHT22;3385;48.928;10.330;2023-08-06T04:44:20;12.50;99.90
6696;DHT22;3385;48.928;10.330;2023-08-06T04:46:46;12.40;99.90
6696;DHT22;3385;48.928;10.330;2023-08-06T04:49:12;12.60;99.90
6696;DHT22;3385;48.928;10.330;2023-08-06T04:51:37;12.70;99.90
6696;DHT22;3385;48.928;10.330;2023-08-06T04:54:04;12.50;99.90
6696;DHT22;3385;48.928;10.330;2023-08-06T04:56:29;12.40;99.90
6696;DHT22;3385;48.928;10.330;2023-08-06T04:58:55;12.50;99.90
6696;DHT22;3385;48.928;10.330;2023-08-06T05:01:21;12.50;99.90
6696;DHT22;3385;48.928;10.330;2023-08-06T05:03:47;12.50;99.90
6696;DHT22;3385;48.928;10.330;2023-08-06T05:06:13;12.60;99.90
6696;DHT22;3385;48.928;10.330;2023-08-06T05:08:39;12.90;99.90
6696;DHT22;3385;48.928;10.330;2023-08-06T05:11:04;12.60;99.90
6696;DHT22;3385;48.928;10.330;2023-08-06T05:13:30;12.40;99.90
6696;DHT22;3385;48.928;10.330;2023-08-06T05:15:56;13.00;99.90
6696;DHT22;3385;48.928;10.330;2023-08-06T05:18:22;12.80;99.90
6696;DHT22;3385;48.928;10.330;2023-08-06T05:20:48;12.90;99.90
6696;DHT22;3385;48.928;10.330;2023-08-06T05:23:13;13.00;99.90
6696;DHT22;3385;48.928;10.330;2023-08-06T05:25:39;13.20;99.90
6696;DHT22;3385;48.928;10.330;2023-08-06T05:28:05;13.20;99.90
6696;DHT22;3385;48.928;10.330;2023-08-06T05:30:31;13.10;99.90
6696;DHT22;3385;48.928;10.330;2023-08-06T05:32:56;13.40;99.90
6696;DHT22;3385;48.928;10.330;2023-08-06T05:35:22;13.50;99.90
6696;DHT22;3385;48.928;10.330;2023-08-06T05:37:50;13.20;99.90
6696;DHT22;3385;48.928;10.330;2023-08-06T05:40:15;13.30;99.90
6696;DHT22;3385;48.928;10.330;2023-08-06T05:42:41;13.60;99.90
6696;DHT22;3385;48.928;10.330;2023-08-06T05:45:07;13.90;99.90
6696;DHT22;3385;48.928;10.330;2023-08-06T05:47:33;13.70;99.90
6696;DHT22;3385;48.928;10.330;2023-08-06T05:49:59;13.90;99.90
6696;DHT22;3385;48.928;10.330;2023-08-06T05:52:25;13.70;99.90
6696;DHT22;3385;48.928;10.330;2023-08-06T05:54:51;14.10;99.90
6696;DHT22;3385;48.928;10.330;2023-08-06T05:57:17;14.00;99.90
6696;DHT22;3385;48.928;10.330;2023-08-06T05:59:43;13.80;99.90
6696;DHT22;3385;48.928;10.330;2023-08-06T06:04:37;14.00;99.90
6696;DHT22;3385;48.928;10.330;2023-08-06T06:07:03;13.80;99.90
6696;DHT22;3385;48.928;10.330;2023-08-06T06:09:29;14.00;99.90
6696;DHT22;3385;48.928;10.330;2023-08-06T06:11:55;13.70;99.90
6696;DHT22;3385;48.928;10.330;2023-08-06T06:14:20;13.50;99.90
6696;DHT22;3385;48.928;10.330;2023-08-06T06:16:46;13.90;99.90
6696;DHT22;3385;48.928;10.330;2023-08-06T06:19:12;13.50;99.90
6696;DHT22;3385;48.928;10.330;2023-08-06T06:21:38;13.70;99.90
6696;DHT22;3385;48.928;10.330;2023-08-06T06:24:05;13.70;99.90
6696;DHT22;3385;48.928;10.330;2023-08-06T06:26:32;14.00;99.90
6696;DHT22;3385;48.928;10.330;2023-08-06T06:28:57;14.10;99.90
6696;DHT22;3385;48.928;10.330;2023-08-06T06:33:49;14.40;99.90
6696;DHT22;3385;48.928;10.330;2023-08-06T06:36:15;14.40;99.90
6696;DHT22;3385;48.928;10.330;2023-08-06T06:38:41;14.10;99.90
6696;DHT22;3385;48.928;10.330;2023-08-06T06:41:06;14.20;99.90
6696;DHT22;3385;48.928;10.330;2023-08-06T06:43:33;14.00;99.90
6696;DHT22;3385;48.928;10.330;2023-08-06T06:45:59;13.40;99.90
6696;DHT22;3385;48.928;10.330;2023-08-06T06:50:55;13.60;99.90
6696;DHT22;3385;48.928;10.330;2023-08-06T06:53:21;13.60;99.90
6696;DHT22;3385;48.928;10.330;2023-08-06T06:55:56;13.90;99.90
6696;DHT22;3385;48.928;10.330;2023-08-06T06:58:22;13.50;99.90
6696;DHT22;3385;48.928;10.330;2023-08-06T07:00:48;13.90;99.90
6696;DHT22;3385;48.928;10.330;2023-08-06T07:03:16;13.60;99.90
6696;DHT22;3385;48.928;10.330;2023-08-06T07:05:44;14.00;99.90
6696;DHT22;3385;48.928;10.330;2023-08-06T07:08:10;14.30;99.90
6696;DHT22;3385;48.928;10.330;2023-08-06T07:10:35;14.50;99.90
6696;DHT22;3385;48.928;10.330;2023-08-06T07:13:01;14.10;99.90
6696;DHT22;3385;48.928;10.330;2023-08-06T07:15:27;14.20;99.90
6696;DHT22;3385;48.928;10.330;2023-08-06T07:17:53;13.90;99.90
6696;DHT22;3385;48.928;10.330;2023-08-06T07:20:18;14.00;99.90
6696;DHT22;3385;48.928;10.330;2023-08-06T07:22:44;14.00;99.90
6696;DHT22;3385;48.928;10.330;2023-08-06T07:25:10;14.50;99.90
6696;DHT22;3385;48.928;10.330;2023-08-06T07:27:36;14.50;99.90
6696;DHT22;3385;48.928;10.330;2023-08-06T07:30:02;14.10;99.90
6696;DHT22;3385;48.928;10.330;2023-08-06T07:32:28;14.00;99.90
6696;DHT22;3385;48.928;10.330;2023-08-06T07:34:54;13.80;99.90
6696;DHT22;3385;48.928;10.330;2023-08-06T07:37:25;14.00;99.90
6696;DHT22;3385;48.928;10.330;2023-08-06T07:42:16;14.50;99.90
6696;DHT22;3385;48.928;10.330;2023-08-06T07:44:51;14.00;99.90
6696;DHT22;3385;48.928;10.330;2023-08-06T07:47:18;14.60;99.90
6696;DHT22;3385;48.928;10.330;2023-08-06T07:49:44;14.30;99.90
6696;DHT22;3385;48.928;10.330;2023-08-06T07:54:36;14.20;99.90
6696;DHT22;3385;48.928;10.330;2023-08-06T07:57:02;14.50;99.90
6696;DHT22;3385;48.928;10.330;2023-08-06T07:59:29;14.50;99.90
6696;DHT22;3385;48.928;10.330;2023-08-06T08:04:21;15.00;99.90
6696;DHT22;3385;48.928;10.330;2023-08-06T08:06:47;15.10;99.90
6696;DHT22;3385;48.928;10.330;2023-08-06T08:09:13;14.80;99.90
6696;DHT22;3385;48.928;10.330;2023-08-06T08:11:40;15.20;99.90
6696;DHT22;3385;48.928;10.330;2023-08-06T08:14:05;15.40;99.90
6696;DHT22;3385;48.928;10.330;2023-08-06T08:16:31;15.00;99.90
6696;DHT22;3385;48.928;10.330;2023-08-06T08:18:57;14.80;99.90
6696;DHT22;3385;48.928;10.330;2023-08-06T08:23:52;15.40;99.90
6696;DHT22;3385;48.928;10.330;2023-08-06T08:28:44;15.60;99.90
6696;DHT22;3385;48.928;10.330;2023-08-06T08:31:10;15.70;99.90
6696;DHT22;3385;48.928;10.330;2023-08-06T08:33:39;15.50;99.90
6696;DHT22;3385;48.928;10.330;2023-08-06T08:36:05;15.20;99.90
6696;DHT22;3385;48.928;10.330;2023-08-06T08:38:31;15.30;99.90
6696;DHT22;3385;48.928;10.330;2023-08-06T08:40:57;15.30;99.90
6696;DHT22;3385;48.928;10.330;2023-08-06T08:43:23;15.50;99.90
6696;DHT22;3385;48.928;10.330;2023-08-06T08:45:53;15.40;99.90
6696;DHT22;3385;48.928;10.330;2023-08-06T08:48:24;15.50;99.90
6696;DHT22;3385;48.928;10.330;2023-08-06T08:50:50;15.40;99.90
6696;DHT22;3385;48.928;10.330;2023-08-06T08:55:46;15.40;99.90
6696;DHT22;3385;48.928;10.330;2023-08-06T08:58:12;15.00;99.90
6696;DHT22;3385;48.928;10.330;2023-08-06T09:00:40;14.80;99.90
6696;DHT22;3385;48.928;10.330;2023-08-06T09:05:33;14.40;99.90
6696;DHT22;3385;48.928;10.330;2023-08-06T09:08:04;14.70;99.90
6696;DHT22;3385;48.928;10.330;2023-08-06T09:10:30;15.10;99.90
6696;DHT22;3385;48.928;10.330;2023-08-06T09:12:57;15.40;99.90
6696;DHT22;3385;48.928;10.330;2023-08-06T09:15:26;15.50;99.90
6696;DHT22;3385;48.928;10.330;2023-08-06T09:17:53;15.60;99.90
6696;DHT22;3385;48.928;10.330;2023-08-06T09:20:20;15.60;99.90
6696;DHT22;3385;48.928;10.330;2023-08-06T09:25:21;15.10;99.90
6696;DHT22;3385;48.928;10.330;2023-08-06T09:27:50;15.60;99.90
6696;DHT22;3385;48.928;10.330;2023-08-06T09:32:56;15.50;99.90
6696;DHT22;3385;48.928;10.330;2023-08-06T09:35:22;15.70;99.90
6696;DHT22;3385;48.928;10.330;2023-08-06T09:37:47;15.50;99.90
6696;DHT22;3385;48.928;10.330;2023-08-06T09:40:31;15.10;99.90
6696;DHT22;3385;48.928;10.330;2023-08-06T09:42:58;15.20;99.90
6696;DHT22;3385;48.928;10.330;2023-08-06T09:45:37;15.50;99.90
6696;DHT22;3385;48.928;10.330;2023-08-06T09:48:07;15.60;99.90
6696;DHT22;3385;48.928;10.330;2023-08-06T09:50:35;16.10;99.90
6696;DHT22;3385;48.928;10.330;2023-08-06T09:53:03;16.10;99.90
6696;DHT22;3385;48.928;10.330;2023-08-06T09:55:30;15.90;99.90
6696;DHT22;3385;48.928;10.330;2023-08-06T10:00:22;16.00;99.90
6696;DHT22;3385;48.928;10.330;2023-08-06T10:02:49;16.40;99.90
6696;DHT22;3385;48.928;10.330;2023-08-06T10:05:18;16.70;99.90
6696;DHT22;3385;48.928;10.330;2023-08-06T10:07:44;16.60;99.90
6696;DHT22;3385;48.928;10.330;2023-08-06T10:10:10;16.90;99.90
6696;DHT22;3385;48.928;10.330;2023-08-06T10:12:40;16.90;99.90
6696;DHT22;3385;48.928;10.330;2023-08-06T10:15:11;16.60;99.90
6696;DHT22;3385;48.928;10.330;2023-08-06T10:17:38;16.80;99.90
6696;DHT22;3385;48.928;10.330;2023-08-06T10:20:06;16.10;99.90
6696;DHT22;3385;48.928;10.330;2023-08-06T10:22:33;16.20;99.90
6696;DHT22;3385;48.928;10.330;2023-08-06T10:25:00;16.30;99.90
6696;DHT22;3385;48.928;10.330;2023-08-06T10:28:01;17.00;99.90
6696;DHT22;3385;48.928;10.330;2023-08-06T10:30:26;18.00;99.90
6696;DHT22;3385;48.928;10.330;2023-08-06T10:33:00;18.00;99.90
6696;DHT22;3385;48.928;10.330;2023-08-06T10:35:30;17.90;99.90
6696;DHT22;3385;48.928;10.330;2023-08-06T10:38:04;17.80;99.90
6696;DHT22;3385;48.928;10.330;2023-08-06T10:40:31;17.10;99.90
6696;DHT22;3385;48.928;10.330;2023-08-06T10:43:04;16.50;99.90
6696;DHT22;3385;48.928;10.330;2023-08-06T10:45:37;16.10;99.90
6696;DHT22;3385;48.928;10.330;2023-08-06T10:48:04;16.00;99.90
6696;DHT22;3385;48.928;10.330;2023-08-06T10:50:30;15.90;99.90
6696;DHT22;3385;48.928;10.330;2023-08-06T10:52:57;16.20;99.90
6696;DHT22;3385;48.928;10.330;2023-08-06T10:55:28;16.50;99.90
6696;DHT22;3385;48.928;10.330;2023-08-06T10:57:55;16.50;99.90
6696;DHT22;3385;48.928;10.330;2023-08-06T11:00:24;16.50;99.90
6696;DHT22;3385;48.928;10.330;2023-08-06T11:02:51;16.30;99.90
6696;DHT22;3385;48.928;10.330;2023-08-06T11:07:44;15.50;99.90
6696;DHT22;3385;48.928;10.330;2023-08-06T11:10:12;16.00;99.90
6696;DHT22;3385;48.928;10.330;2023-08-06T11:12:38;16.50;99.90
6696;DHT22;3385;48.928;10.330;2023-08-06T11:15:05;16.90;99.90
6696;DHT22;3385;48.928;10.330;2023-08-06T11:17:32;17.30;99.90
6696;DHT22;3385;48.928;10.330;2023-08-06T11:20:04;17.70;99.90
6696;DHT22;3385;48.928;10.330;2023-08-06T11:22:30;17.70;99.90
6696;DHT22;3385;48.928;10.330;2023-08-06T11:24:57;18.30;99.90
6696;DHT22;3385;48.928;10.330;2023-08-06T11:27:22;17.60;99.90
6696;DHT22;3385;48.928;10.330;2023-08-06T11:29:48;17.40;99.90
6696;DHT22;3385;48.928;10.330;2023-08-06T11:32:14;16.50;99.90
6696;DHT22;3385;48.928;10.330;2023-08-06T11:34:40;16.90;99.90
6696;DHT22;3385;48.928;10.330;2023-08-06T11:37:07;17.70;99.90
6696;DHT22;3385;48.928;10.330;2023-08-06T11:39:34;17.30;99.90
6696;DHT22;3385;48.928;10.330;2023-08-06T11:42:02;17.60;99.90
6696;DHT22;3385;48.928;10.330;2023-08-06T11:44:30;17.50;99.90
6696;DHT22;3385;48.928;10.330;2023-08-06T11:46:58;17.70;99.90
6696;DHT22;3385;48.928;10.330;2023-08-06T11:49:46;16.90;99.90
6696;DHT22;3385;48.928;10.330;2023-08-06T11:52:16;15.90;99.90
6696;DHT22;3385;48.928;10.330;2023-08-06T11:54:47;15.80;99.90
6696;DHT22;3385;48.928;10.330;2023-08-06T11:59:40;14.70;99.90
6696;DHT22;3385;48.928;10.330;2023-08-06T12:07:18;14.20;99.90
6696;DHT22;3385;48.928;10.330;2023-08-06T12:14:36;14.80;99.90
6696;DHT22;3385;48.928;10.330;2023-08-06T12:17:02;15.50;99.90
6696;DHT22;3385;48.928;10.330;2023-08-06T12:21:55;16.00;99.90
6696;DHT22;3385;48.928;10.330;2023-08-06T12:26:47;16.40;99.90
6696;DHT22;3385;48.928;10.330;2023-08-06T12:29:13;16.20;99.90
6696;DHT22;3385;48.928;10.330;2023-08-06T12:34:05;15.00;99.90
6696;DHT22;3385;48.928;10.330;2023-08-06T12:36:30;14.90;99.90
6696;DHT22;3385;48.928;10.330;2023-08-06T13:10:36;13.80;99.90
6696;DHT22;3385;48.928;10.330;2023-08-06T13:20:20;13.20;99.90
6696;DHT22;3385;48.928;10.330;2023-08-06T13:22:48;13.40;99.90
6696;DHT22;3385;48.928;10.330;2023-08-06T13:30:12;13.10;99.90
6696;DHT22;3385;48.928;10.330;2023-08-06T13:32:38;13.60;99.90
6696;DHT22;3385;48.928;10.330;2023-08-06T13:39:57;13.50;99.90
6696;DHT22;3385;48.928;10.330;2023-08-06T13:44:49;12.90;99.90
6696;DHT22;3385;48.928;10.330;2023-08-06T13:47:14;12.90;99.90
6696;DHT22;3385;48.928;10.330;2023-08-06T13:54:32;12.70;99.90
6696;DHT22;3385;48.928;10.330;2023-08-06T14:14:10;12.70;99.90
6696;DHT22;3385;48.928;10.330;2023-08-06T14:19:02;12.80;99.90
6696;DHT22;3385;48.928;10.330;2023-08-06T14:21:28;13.00;99.90
6696;DHT22;3385;48.928;10.330;2023-08-06T14:26:20;13.00;99.90
6696;DHT22;3385;48.928;10.330;2023-08-06T14:28:46;12.60;99.90
6696;DHT22;3385;48.928;10.330;2023-08-06T14:33:38;13.10;99.90
6696;DHT22;3385;48.928;10.330;2023-08-06T14:38:30;12.70;99.90
6696;DHT22;3385;48.928;10.330;2023-08-06T14:43:22;13.00;99.90
6696;DHT22;3385;48.928;10.330;2023-08-06T14:53:06;13.50;99.90
6696;DHT22;3385;48.928;10.330;2023-08-06T14:55:33;13.00;99.90
6696;DHT22;3385;48.928;10.330;2023-08-06T14:58:01;12.90;99.90
6696;DHT22;3385;48.928;10.330;2023-08-06T15:00:26;13.30;99.90
6696;DHT22;3385;48.928;10.330;2023-08-06T15:02:52;13.40;99.90
6696;DHT22;3385;48.928;10.330;2023-08-06T15:05:18;13.10;99.90
6696;DHT22;3385;48.928;10.330;2023-08-06T15:12:36;13.50;99.90
6696;DHT22;3385;48.928;10.330;2023-08-06T15:15:02;13.20;99.90
6696;DHT22;3385;48.928;10.330;2023-08-06T15:17:28;13.30;99.90
6696;DHT22;3385;48.928;10.330;2023-08-06T15:24:49;13.20;99.90
6696;DHT22;3385;48.928;10.330;2023-08-06T15:27:14;12.70;99.90
6696;DHT22;3385;48.928;10.330;2023-08-06T15:29:41;12.90;99.90
6696;DHT22;3385;48.928;10.330;2023-08-06T15:32:08;12.70;99.90
6696;DHT22;3385;48.928;10.330;2023-08-06T15:34:34;12.70;99.90
6696;DHT22;3385;48.928;10.330;2023-08-06T15:39:26;12.90;99.90
6696;DHT22;3385;48.928;10.330;2023-08-06T15:41:52;13.00;99.90
6696;DHT22;3385;48.928;10.330;2023-08-06T15:44:17;13.00;99.90
6696;DHT22;3385;48.928;10.330;2023-08-06T15:46:43;13.40;99.90
6696;DHT22;3385;48.928;10.330;2023-08-06T15:49:09;13.20;99.90
6696;DHT22;3385;48.928;10.330;2023-08-06T15:54:01;13.60;99.90
6696;DHT22;3385;48.928;10.330;2023-08-06T15:58:54;13.80;99.90
6696;DHT22;3385;48.928;10.330;2023-08-06T16:01:20;13.60;99.90
6696;DHT22;3385;48.928;10.330;2023-08-06T16:03:46;14.10;99.90
6696;DHT22;3385;48.928;10.330;2023-08-06T16:11:04;13.80;99.90
6696;DHT22;3385;48.928;10.330;2023-08-06T16:13:32;14.10;99.90
6696;DHT22;3385;48.928;10.330;2023-08-06T16:15:58;13.90;99.90
6696;DHT22;3385;48.928;10.330;2023-08-06T16:18:23;14.10;99.90
6696;DHT22;3385;48.928;10.330;2023-08-06T16:20:51;14.10;99.90
6696;DHT22;3385;48.928;10.330;2023-08-06T16:23:18;13.80;99.90
6696;DHT22;3385;48.928;10.330;2023-08-06T16:25:43;14.00;99.90
6696;DHT22;3385;48.928;10.330;2023-08-06T16:28:13;13.90;99.90
6696;DHT22;3385;48.928;10.330;2023-08-06T16:30:48;13.80;99.90
6696;DHT22;3385;48.928;10.330;2023-08-06T16:33:13;13.40;99.90
6696;DHT22;3385;48.928;10.330;2023-08-06T16:35:39;13.40;99.90
6696;DHT22;3385;48.928;10.330;2023-08-06T16:38:06;13.30;99.90
6696;DHT22;3385;48.928;10.330;2023-08-06T16:40:32;13.10;99.90
6696;DHT22;3385;48.928;10.330;2023-08-06T16:42:58;13.40;99.90
6696;DHT22;3385;48.928;10.330;2023-08-06T16:47:50;13.00;99.90
6696;DHT22;3385;48.928;10.330;2023-08-06T16:52:42;12.90;99.90
6696;DHT22;3385;48.928;10.330;2023-08-06T16:55:08;12.40;99.90
6696;DHT22;3385;48.928;10.330;2023-08-06T16:57:35;12.40;99.90
6696;DHT22;3385;48.928;10.330;2023-08-06T17:00:01;12.50;99.90
6696;DHT22;3385;48.928;10.330;2023-08-06T17:02:27;12.40;99.90
6696;DHT22;3385;48.928;10.330;2023-08-06T17:04:52;12.40;99.90
6696;DHT22;3385;48.928;10.330;2023-08-06T17:07:18;12.40;99.90
6696;DHT22;3385;48.928;10.330;2023-08-06T17:09:44;12.40;99.90
6696;DHT22;3385;48.928;10.330;2023-08-06T17:12:10;12.40;99.90
6696;DHT22;3385;48.928;10.330;2023-08-06T17:14:35;12.70;99.90
6696;DHT22;3385;48.928;10.330;2023-08-06T17:17:01;12.40;99.90
6696;DHT22;3385;48.928;10.330;2023-08-06T17:19:27;12.30;99.90
6696;DHT22;3385;48.928;10.330;2023-08-06T17:21:53;12.30;99.90
6696;DHT22;3385;48.928;10.330;2023-08-06T17:29:11;12.40;99.90
6696;DHT22;3385;48.928;10.330;2023-08-06T17:31:36;12.10;99.90
6696;DHT22;3385;48.928;10.330;2023-08-06T17:34:02;12.00;99.90
6696;DHT22;3385;48.928;10.330;2023-08-06T17:41:21;12.00;99.90
6696;DHT22;3385;48.928;10.330;2023-08-06T17:43:46;12.30;99.90
6696;DHT22;3385;48.928;10.330;2023-08-06T17:46:12;12.30;99.90
6696;DHT22;3385;48.928;10.330;2023-08-06T17:51:04;12.10;99.90
6696;DHT22;3385;48.928;10.330;2023-08-06T17:53:30;11.90;99.90
6696;DHT22;3385;48.928;10.330;2023-08-06T17:55:56;12.20;99.90
6696;DHT22;3385;48.928;10.330;2023-08-06T17:58:26;11.90;99.90
6696;DHT22;3385;48.928;10.330;2023-08-06T18:00:52;12.10;99.90
6696;DHT22;3385;48.928;10.330;2023-08-06T18:03:17;12.00;99.90
6696;DHT22;3385;48.928;10.330;2023-08-06T18:05:43;11.90;99.90
6696;DHT22;3385;48.928;10.330;2023-08-06T18:08:09;11.70;99.90
6696;DHT22;3385;48.928;10.330;2023-08-06T18:10:37;11.70;99.90
6696;DHT22;3385;48.928;10.330;2023-08-06T18:13:02;11.80;99.90
6696;DHT22;3385;48.928;10.330;2023-08-06T18:15:28;12.00;99.90
6696;DHT22;3385;48.928;10.330;2023-08-06T18:20:20;11.90;99.90
6696;DHT22;3385;48.928;10.330;2023-08-06T18:22:46;11.90;99.90
6696;DHT22;3385;48.928;10.330;2023-08-06T18:25:11;11.60;99.90
6696;DHT22;3385;48.928;10.330;2023-08-06T18:27:37;11.80;99.90
6696;DHT22;3385;48.928;10.330;2023-08-06T18:30:04;11.60;99.90
6696;DHT22;3385;48.928;10.330;2023-08-06T18:32:29;11.70;99.90
6696;DHT22;3385;48.928;10.330;2023-08-06T18:34:55;11.50;99.90
6696;DHT22;3385;48.928;10.330;2023-08-06T18:37:21;11.60;99.90
6696;DHT22;3385;48.928;10.330;2023-08-06T18:39:50;11.50;99.90
6696;DHT22;3385;48.928;10.330;2023-08-06T18:42:16;11.40;99.90
6696;DHT22;3385;48.928;10.330;2023-08-06T18:44:41;11.50;99.90
6696;DHT22;3385;48.928;10.330;2023-08-06T18:47:07;11.40;99.90
6696;DHT22;3385;48.928;10.330;2023-08-06T18:49:33;11.30;99.90
6696;DHT22;3385;48.928;10.330;2023-08-06T18:54:27;11.30;99.90
6696;DHT22;3385;48.928;10.330;2023-08-06T19:01:47;11.20;99.90